Allerton, Iowa
Current Conditions -  °F | °C
As of 10:55 PM on Monday 20 Oct 2014 (Local Time) from KCNC Reporting Station
Clear Clear  
Wind Chill: 11°   Ceiling: Unl
Heat Index: 11°   Visibility: 10mi
Dew Point:   Wind: 5mph
Humidity: 67%   Direction: 280°W
Pressure: 30.05"   Gusts: NA
Location:  40.71°N, 93.37°W
Report Text: KCNC 210355Z AUTO 28004KT 10SM CLR 11/05 A3005 RMK AO2
Loading
Personal Weather Stations






























Interactive Weather Map
Tropical Storm Tracking
New forecast layout! Learn more

10-Day Weather Forecast

Advertisements
Track Severe Weather on mobile